createdAt,value
2023-05-11T00:00:52.199Z,23.52
2023-05-11T00:03:19.169Z,22.63
2023-05-11T00:05:49.344Z,21.20
2023-05-11T00:08:17.179Z,23.10
2023-05-11T00:10:47.650Z,21.25
2023-05-11T00:13:14.488Z,26.08
2023-05-11T00:15:41.589Z,26.75
2023-05-11T00:18:08.368Z,22.60
2023-05-11T00:20:34.981Z,22.00
2023-05-11T00:23:01.796Z,28.73
2023-05-11T00:25:28.381Z,29.80
2023-05-11T00:27:55.034Z,24.70
2023-05-11T00:30:21.762Z,26.10
2023-05-11T00:32:51.423Z,27.40
2023-05-11T00:35:18.111Z,25.55
2023-05-11T00:37:44.988Z,24.92
2023-05-11T00:40:11.701Z,36.55
2023-05-11T00:42:38.361Z,27.90
2023-05-11T00:45:05.705Z,31.48
2023-05-11T00:47:32.781Z,32.08
2023-05-11T00:49:59.597Z,30.63
2023-05-11T00:52:26.876Z,25.45
2023-05-11T00:54:53.504Z,27.85
2023-05-11T00:57:21.283Z,32.30
2023-05-11T00:59:49.600Z,31.13
2023-05-11T01:02:16.915Z,31.05
2023-05-11T01:04:44.628Z,27.50
2023-05-11T01:07:19.372Z,28.20
2023-05-11T01:10:14.602Z,33.38
2023-05-11T01:13:02.268Z,30.10
2023-05-11T01:15:50.345Z,29.13
2023-05-11T01:18:37.301Z,35.60
2023-05-11T01:21:11.342Z,31.27
2023-05-11T01:23:44.674Z,31.05
2023-05-11T01:26:39.771Z,28.92
2023-05-11T01:29:37.717Z,28.98
2023-05-11T01:32:10.258Z,26.88
2023-05-11T01:37:13.471Z,31.17
2023-05-11T01:39:50.603Z,29.27
2023-05-11T01:42:22.411Z,31.90
2023-05-11T01:44:53.241Z,35.00
2023-05-11T01:47:23.465Z,24.08
2023-05-11T01:49:52.151Z,28.30
2023-05-11T01:52:21.673Z,34.70
2023-05-11T01:54:52.442Z,31.33
2023-05-11T01:57:19.705Z,33.45
2023-05-11T01:59:47.428Z,30.30
2023-05-11T02:02:14.963Z,36.15
2023-05-11T02:04:43.993Z,31.92
2023-05-11T02:07:13.129Z,31.63
2023-05-11T02:09:40.811Z,31.35
2023-05-11T02:12:09.342Z,32.28
2023-05-11T02:14:39.200Z,30.08
2023-05-11T02:17:06.729Z,36.63
2023-05-11T02:19:38.483Z,36.92
2023-05-11T02:22:06.409Z,33.70
2023-05-11T02:24:34.457Z,34.28
2023-05-11T02:27:02.532Z,30.25
2023-05-11T02:29:29.208Z,36.63
2023-05-11T02:32:18.110Z,32.00
2023-05-11T02:34:54.320Z,36.25
2023-05-11T02:37:25.555Z,37.67
2023-05-11T02:39:58.449Z,34.47
2023-05-11T02:42:28.832Z,30.38
2023-05-11T02:45:02.428Z,36.13
2023-05-11T02:47:33.615Z,42.80
2023-05-11T02:50:04.182Z,32.67
2023-05-11T02:52:35.995Z,37.15
2023-05-11T02:55:05.613Z,39.20
2023-05-11T02:57:33.527Z,39.40
2023-05-11T03:00:05.238Z,41.75
2023-05-11T03:02:32.289Z,37.28
2023-05-11T03:04:58.911Z,38.60
2023-05-11T03:07:26.022Z,35.58
2023-05-11T03:09:53.303Z,42.97
2023-05-11T03:12:21.216Z,34.70
2023-05-11T03:14:49.333Z,34.03
2023-05-11T03:17:16.863Z,47.78
2023-05-11T03:19:44.147Z,38.28
2023-05-11T03:22:11.792Z,41.40
2023-05-11T03:24:39.318Z,41.42
2023-05-11T03:27:08.348Z,38.05
2023-05-11T03:29:38.650Z,46.28
2023-05-11T03:32:05.955Z,33.85
2023-05-11T03:34:35.641Z,44.00
2023-05-11T03:37:05.832Z,35.85
2023-05-11T03:39:35.254Z,39.50
2023-05-11T03:42:04.526Z,43.70
2023-05-11T03:44:34.201Z,35.47
2023-05-11T03:47:02.460Z,38.15
2023-05-11T03:49:29.913Z,39.53
2023-05-11T03:51:57.348Z,46.88
2023-05-11T03:54:26.080Z,40.00
2023-05-11T03:56:53.028Z,47.65
2023-05-11T03:59:20.046Z,49.60
2023-05-11T04:01:47.032Z,42.22
2023-05-11T04:04:14.003Z,43.00
2023-05-11T04:06:40.814Z,45.22
2023-05-11T04:09:12.477Z,45.75
2023-05-11T04:11:39.143Z,42.78
2023-05-11T04:14:05.882Z,45.15
2023-05-11T04:16:32.547Z,44.47
2023-05-11T04:18:59.230Z,43.30
2023-05-11T04:21:25.866Z,44.22
2023-05-11T04:23:53.517Z,44.13
2023-05-11T04:26:20.283Z,50.00
2023-05-11T04:28:46.883Z,48.58
2023-05-11T04:31:14.084Z,48.00
2023-05-11T04:33:40.815Z,42.70
2023-05-11T04:36:07.763Z,42.88
2023-05-11T04:38:34.354Z,41.25
2023-05-11T04:41:06.466Z,40.92
2023-05-11T04:43:37.029Z,49.55
2023-05-11T04:46:05.358Z,52.33
2023-05-11T04:48:32.294Z,47.85
2023-05-11T04:50:58.930Z,39.80
2023-05-11T04:53:30.299Z,49.92
2023-05-11T04:55:57.299Z,45.33
2023-05-11T04:58:23.806Z,49.00
2023-05-11T05:00:50.350Z,44.75
2023-05-11T05:03:17.000Z,40.72
2023-05-11T05:05:43.625Z,45.03
2023-05-11T05:08:10.287Z,41.80
2023-05-11T05:10:37.987Z,41.47
2023-05-11T05:13:04.575Z,47.63
2023-05-11T05:15:31.448Z,49.83
2023-05-11T05:17:58.960Z,51.10
2023-05-11T05:20:25.959Z,54.85
2023-05-11T05:22:55.136Z,49.95
2023-05-11T05:25:22.281Z,44.40
2023-05-11T05:27:49.399Z,48.20
2023-05-11T05:30:19.023Z,44.83
2023-05-11T05:32:47.469Z,51.13
2023-05-11T05:35:15.023Z,39.33
2023-05-11T05:37:42.881Z,44.97
2023-05-11T05:40:11.109Z,43.22
2023-05-11T05:42:42.897Z,46.05
2023-05-11T05:45:14.770Z,43.10
2023-05-11T05:47:42.757Z,41.63
2023-05-11T05:50:09.642Z,44.72
2023-05-11T05:52:36.251Z,44.47
2023-05-11T05:55:03.641Z,43.08
2023-05-11T05:57:30.738Z,44.55
2023-05-11T05:59:57.871Z,42.35
2023-05-11T06:02:43.102Z,42.17
2023-05-11T06:05:19.176Z,36.58
2023-05-11T06:07:54.449Z,39.25
2023-05-11T06:10:29.106Z,41.85
2023-05-11T06:12:55.788Z,49.75
2023-05-11T06:15:23.206Z,43.13
2023-05-11T06:17:56.733Z,42.47
2023-05-11T06:20:24.191Z,43.70
2023-05-11T06:22:50.717Z,43.33
2023-05-11T06:25:17.651Z,46.78
2023-05-11T06:27:46.270Z,49.83
2023-05-11T06:30:13.727Z,53.15
2023-05-11T06:32:40.588Z,50.28
2023-05-11T06:35:07.679Z,46.20
2023-05-11T06:37:35.454Z,44.60
2023-05-11T06:40:03.193Z,43.53
2023-05-11T06:42:29.825Z,41.67
2023-05-11T06:45:07.976Z,40.33
2023-05-11T06:47:34.840Z,44.47
2023-05-11T06:50:01.805Z,42.00
2023-05-11T06:52:28.397Z,39.13
2023-05-11T06:54:54.991Z,41.35
2023-05-11T06:57:21.673Z,39.40
2023-05-11T06:59:48.316Z,44.10
2023-05-11T07:02:14.936Z,41.00
2023-05-11T07:04:41.490Z,37.85
2023-05-11T07:07:08.962Z,37.65
2023-05-11T07:09:35.671Z,42.45
2023-05-11T07:12:02.692Z,36.95
2023-05-11T07:14:29.237Z,39.22
2023-05-11T07:16:55.874Z,35.25
2023-05-11T07:19:22.424Z,38.33
2023-05-11T07:21:48.997Z,38.47
2023-05-11T07:24:15.524Z,36.95
2023-05-11T07:26:42.042Z,37.42
2023-05-11T07:29:08.615Z,35.10
2023-05-11T07:31:36.297Z,32.67
2023-05-11T07:34:02.902Z,33.90
2023-05-11T07:36:30.028Z,32.67
2023-05-11T07:38:57.906Z,35.30
2023-05-11T07:41:26.829Z,34.72
2023-05-11T07:43:54.448Z,32.35
2023-05-11T07:46:21.236Z,35.88
2023-05-11T07:48:47.965Z,33.40
2023-05-11T07:51:14.684Z,36.08
2023-05-11T07:53:41.243Z,31.70
2023-05-11T07:56:07.980Z,34.15
2023-05-11T07:58:34.540Z,31.55
2023-05-11T08:01:01.136Z,31.73
2023-05-11T08:03:27.804Z,33.72
2023-05-11T08:05:54.490Z,33.50
2023-05-11T08:08:21.165Z,39.38
2023-05-11T08:10:47.671Z,37.90
2023-05-11T08:13:14.198Z,36.08
2023-05-11T08:15:40.729Z,39.80
2023-05-11T08:18:07.835Z,39.85
2023-05-11T08:20:34.538Z,44.65
2023-05-11T08:23:01.121Z,38.33
2023-05-11T08:25:27.749Z,43.65
2023-05-11T08:27:54.272Z,35.92
2023-05-11T08:30:20.954Z,31.88
2023-05-11T08:32:57.718Z,38.88
2023-05-11T08:35:25.374Z,39.83
2023-05-11T08:37:51.929Z,37.28
2023-05-11T08:40:19.597Z,40.25
2023-05-11T08:42:47.045Z,37.78
2023-05-11T08:45:13.927Z,42.78
2023-05-11T08:47:40.835Z,38.30
2023-05-11T08:50:07.763Z,42.85
2023-05-11T08:52:34.581Z,38.08
2023-05-11T08:55:01.194Z,46.45
2023-05-11T08:57:30.791Z,40.40
2023-05-11T08:59:58.382Z,35.67
2023-05-11T09:02:25.995Z,37.85
2023-05-11T09:04:52.977Z,30.90
2023-05-11T09:07:19.718Z,34.92
2023-05-11T09:09:47.032Z,31.50
2023-05-11T09:12:14.061Z,36.78
2023-05-11T09:14:40.673Z,34.95
2023-05-11T09:17:07.273Z,31.00
2023-05-11T09:19:33.878Z,38.35
2023-05-11T09:22:00.576Z,29.40
2023-05-11T09:24:27.843Z,38.22
2023-05-11T09:27:10.295Z,33.40
2023-05-11T09:29:36.972Z,34.00
2023-05-11T09:32:04.731Z,35.10
2023-05-11T09:34:31.247Z,31.90
2023-05-11T09:36:57.973Z,31.33
2023-05-11T09:39:43.927Z,34.38
2023-05-11T09:42:19.231Z,28.90
2023-05-11T09:44:47.037Z,38.00
2023-05-11T09:47:16.695Z,31.52
2023-05-11T09:49:45.132Z,30.25
2023-05-11T09:52:13.844Z,27.58
2023-05-11T09:54:47.788Z,37.10
2023-05-11T09:57:31.116Z,32.28
2023-05-11T09:59:59.749Z,32.67
2023-05-11T10:02:31.883Z,31.02
2023-05-11T10:05:00.744Z,33.65
2023-05-11T10:07:35.463Z,31.90
2023-05-11T10:10:04.395Z,31.92
2023-05-11T10:12:33.503Z,32.97
2023-05-11T10:15:07.564Z,34.75
2023-05-11T10:17:35.270Z,25.95
2023-05-11T10:20:04.158Z,31.60
2023-05-11T10:22:31.526Z,32.30
2023-05-11T10:24:59.518Z,32.72
2023-05-11T10:27:27.113Z,32.03
2023-05-11T10:29:53.787Z,24.80
2023-05-11T10:32:21.590Z,31.60
2023-05-11T10:34:50.202Z,30.15
2023-05-11T10:37:17.400Z,29.73
2023-05-11T10:39:48.431Z,32.30
2023-05-11T10:42:33.525Z,32.15
2023-05-11T10:45:18.412Z,32.72
2023-05-11T10:48:03.753Z,36.17
2023-05-11T10:50:58.178Z,35.40
2023-05-11T10:54:02.199Z,35.17
2023-05-11T10:56:43.727Z,34.42
2023-05-11T10:59:22.339Z,34.28
2023-05-11T11:01:58.917Z,34.05
2023-05-11T11:04:41.220Z,36.08
2023-05-11T11:07:08.466Z,39.00
2023-05-11T11:10:00.407Z,33.80
2023-05-11T11:12:29.498Z,37.30
2023-05-11T11:15:00.029Z,37.22
2023-05-11T11:17:31.549Z,38.38
2023-05-11T11:20:04.508Z,42.50
2023-05-11T11:22:41.653Z,35.85
2023-05-11T11:25:09.788Z,40.15
2023-05-11T11:27:42.407Z,38.03
2023-05-11T11:30:18.970Z,36.22
2023-05-11T11:32:53.358Z,44.55
2023-05-11T11:35:42.122Z,44.10
2023-05-11T11:38:19.328Z,48.45
2023-05-11T11:40:51.531Z,49.50
2023-05-11T11:43:19.942Z,46.38
2023-05-11T11:45:51.404Z,41.80
2023-05-11T11:48:23.948Z,41.30
2023-05-11T11:53:37.548Z,47.40
2023-05-11T11:56:05.299Z,46.47
2023-05-11T11:58:58.300Z,46.03
2023-05-11T12:01:30.653Z,49.47
2023-05-11T12:04:18.945Z,38.20
2023-05-11T12:06:51.744Z,43.35
2023-05-11T12:09:19.352Z,50.30
2023-05-11T12:11:47.657Z,45.38
2023-05-11T12:14:15.334Z,45.28
2023-05-11T12:16:41.936Z,41.72
2023-05-11T12:19:08.633Z,47.55
2023-05-11T12:21:35.374Z,45.35
2023-05-11T12:24:04.333Z,38.97
2023-05-11T12:26:32.541Z,43.88
2023-05-11T12:29:13.820Z,37.60
2023-05-11T12:31:42.400Z,46.17
2023-05-11T12:34:20.516Z,42.92
2023-05-11T12:36:48.372Z,40.55
2023-05-11T12:39:26.310Z,38.40
2023-05-11T12:41:56.607Z,41.08
2023-05-11T12:44:25.820Z,41.83
2023-05-11T12:46:52.812Z,37.78
2023-05-11T12:52:01.080Z,43.03
2023-05-11T12:54:38.036Z,36.15
2023-05-11T12:57:09.268Z,33.22
2023-05-11T12:59:38.817Z,34.10
2023-05-11T13:02:09.885Z,34.67
2023-05-11T13:04:37.097Z,33.85
2023-05-11T13:07:03.881Z,38.60
2023-05-11T13:09:30.498Z,43.72
2023-05-11T13:12:17.413Z,32.58
2023-05-11T13:14:49.559Z,39.38
2023-05-11T13:17:33.158Z,36.45
2023-05-11T13:20:21.822Z,46.72
2023-05-11T13:22:49.662Z,42.75
2023-05-11T13:25:19.154Z,42.10
2023-05-11T13:27:46.034Z,42.75
2023-05-11T13:30:13.159Z,49.55
2023-05-11T13:32:39.774Z,42.45
2023-05-11T13:35:07.168Z,43.25
2023-05-11T13:37:33.778Z,47.83
2023-05-11T13:40:00.861Z,49.17
2023-05-11T13:42:28.517Z,48.08
2023-05-11T13:44:55.172Z,44.88
2023-05-11T13:47:21.776Z,43.63
2023-05-11T13:49:48.861Z,52.13
2023-05-11T13:52:15.625Z,46.67
2023-05-11T13:54:42.254Z,49.30
2023-05-11T13:57:08.860Z,47.00
2023-05-11T13:59:35.477Z,37.55
2023-05-11T14:02:02.127Z,51.80
2023-05-11T14:04:28.752Z,47.38
2023-05-11T14:06:55.306Z,52.92
2023-05-11T14:09:23.447Z,45.25
2023-05-11T14:11:50.714Z,41.33
2023-05-11T14:14:17.623Z,41.20
2023-05-11T14:16:44.661Z,41.47
2023-05-11T14:19:11.481Z,42.95
2023-05-11T14:21:38.222Z,37.85
2023-05-11T14:24:12.131Z,38.85
2023-05-11T14:26:40.179Z,40.88
2023-05-11T14:29:07.436Z,38.72
2023-05-11T14:31:35.764Z,35.53
2023-05-11T14:34:05.832Z,34.30
2023-05-11T14:36:32.559Z,33.00
2023-05-11T14:38:59.292Z,36.72
2023-05-11T14:41:25.903Z,33.70
2023-05-11T14:43:52.527Z,34.55
2023-05-11T14:46:19.579Z,30.80
2023-05-11T14:48:46.421Z,31.23
2023-05-11T14:51:13.027Z,29.95
2023-05-11T14:53:39.641Z,24.58
2023-05-11T14:56:06.724Z,21.55
2023-05-11T14:58:33.369Z,21.02
2023-05-11T15:01:00.113Z,18.77
2023-05-11T15:03:26.968Z,20.60
2023-05-11T15:05:53.527Z,21.45
2023-05-11T15:08:29.632Z,22.45
2023-05-11T15:10:56.609Z,21.98
2023-05-11T15:13:23.855Z,23.45
2023-05-11T15:15:51.403Z,23.65
2023-05-11T15:18:18.097Z,22.33
2023-05-11T15:20:44.804Z,24.92
2023-05-11T15:23:11.821Z,18.77
2023-05-11T15:25:38.490Z,17.95
2023-05-11T15:28:06.138Z,19.58
2023-05-11T15:30:33.007Z,19.55
2023-05-11T15:32:59.791Z,20.17
2023-05-11T15:35:26.480Z,16.42
2023-05-11T15:37:53.056Z,17.10
2023-05-11T15:40:19.744Z,18.23
2023-05-11T15:42:46.514Z,18.02
2023-05-11T15:45:13.180Z,17.60
2023-05-11T15:47:39.800Z,17.90
2023-05-11T15:50:07.386Z,16.25
2023-05-11T15:52:33.909Z,18.52
2023-05-11T15:55:00.879Z,18.77
2023-05-11T15:57:27.442Z,19.70
2023-05-11T15:59:53.990Z,18.75
2023-05-11T16:02:20.515Z,16.00
2023-05-11T16:04:47.042Z,14.93
2023-05-11T16:07:13.673Z,17.50
2023-05-11T16:09:40.234Z,19.45
2023-05-11T16:12:07.135Z,19.52
2023-05-11T16:14:33.715Z,20.25
2023-05-11T16:17:01.803Z,19.83
2023-05-11T16:19:28.539Z,23.85
2023-05-11T16:21:55.077Z,20.58
2023-05-11T16:24:21.711Z,22.27
2023-05-11T16:26:48.304Z,23.60
2023-05-11T16:29:14.804Z,21.23
2023-05-11T16:31:41.409Z,21.70
2023-05-11T16:34:08.662Z,27.13
2023-05-11T16:36:35.474Z,14.80
2023-05-11T16:39:02.313Z,10.40
2023-05-11T16:41:29.217Z,12.93
2023-05-11T16:43:56.068Z,12.70
2023-05-11T16:46:22.982Z,15.10
2023-05-11T16:48:49.865Z,15.00
2023-05-11T16:51:16.407Z,11.73
2023-05-11T16:53:44.759Z,10.57
2023-05-11T16:56:11.790Z,9.32
2023-05-11T16:58:38.494Z,9.55
2023-05-11T17:01:05.775Z,10.43
2023-05-11T17:03:34.312Z,10.18
2023-05-11T17:06:02.887Z,10.55
2023-05-11T17:08:29.674Z,7.93
2023-05-11T17:10:56.550Z,6.97
2023-05-11T17:13:23.130Z,7.85
2023-05-11T17:15:51.428Z,7.00
2023-05-11T17:18:18.138Z,6.05
2023-05-11T17:20:44.832Z,5.10
2023-05-11T17:23:11.443Z,6.10
2023-05-11T17:25:38.067Z,7.00
2023-05-11T17:28:04.844Z,5.57
2023-05-11T17:30:47.181Z,5.18
2023-05-11T17:33:15.220Z,5.78
2023-05-11T17:35:41.954Z,6.55
2023-05-11T17:38:08.544Z,5.85
2023-05-11T17:40:35.269Z,6.13
2023-05-11T17:43:02.059Z,5.30
2023-05-11T17:45:29.128Z,7.35
2023-05-11T17:47:55.887Z,5.22
2023-05-11T17:50:23.383Z,5.63
2023-05-11T17:52:51.154Z,6.05
2023-05-11T17:55:18.500Z,5.70
2023-05-11T17:57:45.247Z,6.95
2023-05-11T18:00:12.527Z,5.97
2023-05-11T18:02:39.284Z,5.95
2023-05-11T18:05:06.902Z,6.20
2023-05-11T18:07:33.561Z,5.95
2023-05-11T18:10:00.150Z,8.63
2023-05-11T18:12:26.997Z,5.38
2023-05-11T18:14:53.511Z,6.47
2023-05-11T18:17:20.110Z,5.53
2023-05-11T18:19:46.624Z,8.57
2023-05-11T18:22:13.209Z,6.30
2023-05-11T18:24:39.843Z,6.68
2023-05-11T18:27:06.513Z,7.75
2023-05-11T18:29:33.099Z,6.10
2023-05-11T18:31:59.938Z,10.07
2023-05-11T18:34:27.536Z,6.88
2023-05-11T18:36:54.173Z,6.57
2023-05-11T18:39:20.751Z,5.43
2023-05-11T18:41:47.891Z,5.57
2023-05-11T18:44:15.159Z,5.35
2023-05-11T18:46:41.979Z,5.93
2023-05-11T18:49:08.885Z,5.70
2023-05-11T18:51:35.420Z,6.35
2023-05-11T18:54:02.297Z,7.22
2023-05-11T18:56:29.742Z,5.38
2023-05-11T18:58:56.293Z,5.22
2023-05-11T19:01:28.104Z,4.72
2023-05-11T19:03:59.840Z,4.75
2023-05-11T19:06:26.516Z,4.50
2023-05-11T19:08:55.155Z,3.85
2023-05-11T19:11:23.708Z,4.93
2023-05-11T19:13:50.490Z,4.60
2023-05-11T19:16:17.088Z,4.68
2023-05-11T19:18:43.697Z,5.25
2023-05-11T19:21:10.653Z,5.75
2023-05-11T19:23:37.244Z,5.32
2023-05-11T19:26:03.807Z,5.78
2023-05-11T19:28:30.477Z,5.20
2023-05-11T19:31:01.901Z,6.03
2023-05-11T19:33:28.932Z,6.32
2023-05-11T19:35:55.655Z,5.50
2023-05-11T19:38:22.656Z,5.13
2023-05-11T19:40:49.681Z,6.10
2023-05-11T19:43:16.520Z,6.40
2023-05-11T19:45:46.001Z,7.05
2023-05-11T19:48:13.635Z,5.88
2023-05-11T19:50:43.283Z,5.20
2023-05-11T19:53:09.842Z,5.25
2023-05-11T19:55:36.406Z,5.13
2023-05-11T19:58:03.404Z,7.13
2023-05-11T20:00:30.114Z,4.80
2023-05-11T20:02:57.210Z,6.07
2023-05-11T20:05:24.037Z,4.78
2023-05-11T20:07:50.614Z,6.40
2023-05-11T20:10:17.363Z,6.35
2023-05-11T20:12:44.245Z,6.20
2023-05-11T20:15:11.513Z,6.30
2023-05-11T20:17:39.326Z,5.93
2023-05-11T20:20:07.375Z,7.00
2023-05-11T20:22:35.019Z,6.45
2023-05-11T20:25:02.903Z,8.77
2023-05-11T20:27:29.567Z,6.68
2023-05-11T20:30:16.462Z,7.00
2023-05-11T20:34:06.741Z,7.88
2023-05-11T20:35:45.886Z,8.73
2023-05-11T20:38:14.284Z,7.47
2023-05-11T20:40:41.388Z,7.78
2023-05-11T20:43:08.269Z,8.07
2023-05-11T20:45:36.251Z,6.97
2023-05-11T20:48:02.952Z,10.02
2023-05-11T20:50:30.708Z,8.40
2023-05-11T20:52:58.984Z,10.15
2023-05-11T20:55:25.610Z,11.85
2023-05-11T20:57:52.183Z,10.25
2023-05-11T21:00:18.905Z,9.02
2023-05-11T21:02:46.551Z,10.48
2023-05-11T21:05:13.483Z,9.65
2023-05-11T21:07:40.340Z,14.52
2023-05-11T21:10:07.300Z,10.80
2023-05-11T21:12:33.956Z,13.60
2023-05-11T21:15:00.793Z,10.98
2023-05-11T21:17:27.679Z,10.88
2023-05-11T21:19:54.345Z,10.82
2023-05-11T21:22:20.967Z,12.65
2023-05-11T21:24:47.737Z,13.20
2023-05-11T21:27:15.018Z,10.60
2023-05-11T21:29:41.961Z,11.32
2023-05-11T21:32:09.076Z,13.13
2023-05-11T21:34:35.820Z,12.60
2023-05-11T21:37:03.381Z,13.40
2023-05-11T21:39:30.045Z,12.18
2023-05-11T21:41:57.739Z,12.18
2023-05-11T21:44:26.319Z,14.63
2023-05-11T21:46:53.073Z,13.30
2023-05-11T21:49:19.703Z,12.05
2023-05-11T21:51:46.362Z,13.73
2023-05-11T21:54:12.926Z,13.45
2023-05-11T21:56:39.585Z,13.23
2023-05-11T21:59:06.283Z,11.05
2023-05-11T22:01:32.997Z,10.38
2023-05-11T22:04:02.586Z,10.82
2023-05-11T22:06:29.270Z,13.65
2023-05-11T22:08:55.861Z,12.13
2023-05-11T22:11:22.620Z,9.40
2023-05-11T22:13:50.375Z,9.18
2023-05-11T22:16:20.138Z,9.43
2023-05-11T22:18:47.089Z,10.05
2023-05-11T22:21:13.730Z,10.45
2023-05-11T22:23:40.365Z,14.00
2023-05-11T22:26:07.037Z,10.07
2023-05-11T22:28:33.633Z,9.73
2023-05-11T22:31:00.707Z,10.30
2023-05-11T22:33:27.353Z,10.43
2023-05-11T22:35:53.937Z,9.18
2023-05-11T22:38:20.583Z,8.32
2023-05-11T22:40:48.102Z,10.50
2023-05-11T22:43:14.814Z,8.77
2023-05-11T22:45:41.714Z,9.63
2023-05-11T22:48:08.454Z,12.95
2023-05-11T22:50:35.040Z,9.77
2023-05-11T22:53:01.720Z,8.93
2023-05-11T22:55:28.878Z,10.35
2023-05-11T22:57:55.535Z,11.05
2023-05-11T23:00:22.442Z,10.68
2023-05-11T23:02:49.380Z,10.07
2023-05-11T23:05:16.104Z,10.75
2023-05-11T23:07:42.745Z,11.80
2023-05-11T23:10:09.900Z,10.73
2023-05-11T23:12:36.491Z,11.07
2023-05-11T23:15:03.760Z,11.30
2023-05-11T23:17:30.491Z,12.82
2023-05-11T23:19:57.176Z,10.32
2023-05-11T23:22:23.783Z,12.40
2023-05-11T23:24:50.411Z,9.02
2023-05-11T23:27:17.173Z,10.77
2023-05-11T23:29:43.791Z,10.40
2023-05-11T23:32:10.356Z,11.15
2023-05-11T23:34:38.028Z,9.90
2023-05-11T23:37:05.008Z,11.38
2023-05-11T23:39:31.885Z,10.38
2023-05-11T23:41:58.644Z,9.18
2023-05-11T23:44:25.370Z,11.23
2023-05-11T23:46:52.028Z,11.07
2023-05-11T23:49:18.724Z,10.32
2023-05-11T23:51:45.328Z,9.45
2023-05-11T23:54:11.857Z,11.73
2023-05-11T23:56:38.544Z,11.77
2023-05-11T23:59:05.237Z,11.07
